sensor_id;sensor_type;location;lat;lon;timestamp;temperature;humidity
18131;DHT22;9191;54.324;10.126;2022-09-20T00:02:07;9.50;99.90
18131;DHT22;9191;54.324;10.126;2022-09-20T00:04:34;9.40;99.90
18131;DHT22;9191;54.324;10.126;2022-09-20T00:07:01;9.40;99.90
18131;DHT22;9191;54.324;10.126;2022-09-20T00:09:29;9.30;99.90
18131;DHT22;9191;54.324;10.126;2022-09-20T00:11:55;9.30;99.90
18131;DHT22;9191;54.324;10.126;2022-09-20T00:14:22;9.30;99.90
18131;DHT22;9191;54.324;10.126;2022-09-20T00:16:49;9.30;99.90
18131;DHT22;9191;54.324;10.126;2022-09-20T00:19:16;9.30;99.90
18131;DHT22;9191;54.324;10.126;2022-09-20T00:21:43;9.30;99.90
18131;DHT22;9191;54.324;10.126;2022-09-20T00:24:10;9.20;99.90
18131;DHT22;9191;54.324;10.126;2022-09-20T00:26:38;9.20;99.90
18131;DHT22;9191;54.324;10.126;2022-09-20T00:29:05;9.20;99.90
18131;DHT22;9191;54.324;10.126;2022-09-20T00:31:32;9.20;99.90
18131;DHT22;9191;54.324;10.126;2022-09-20T00:33:59;9.10;99.90
18131;DHT22;9191;54.324;10.126;2022-09-20T00:36:44;9.10;99.90
18131;DHT22;9191;54.324;10.126;2022-09-20T00:39:11;9.10;99.90
18131;DHT22;9191;54.324;10.126;2022-09-20T00:41:40;9.20;99.90
18131;DHT22;9191;54.324;10.126;2022-09-20T00:46:48;9.10;99.90
18131;DHT22;9191;54.324;10.126;2022-09-20T00:49:16;9.20;99.90
18131;DHT22;9191;54.324;10.126;2022-09-20T00:51:44;9.20;99.90
18131;DHT22;9191;54.324;10.126;2022-09-20T00:54:12;9.10;99.90
18131;DHT22;9191;54.324;10.126;2022-09-20T00:56:43;9.10;99.90
18131;DHT22;9191;54.324;10.126;2022-09-20T00:59:10;9.10;99.90
18131;DHT22;9191;54.324;10.126;2022-09-20T01:01:39;9.00;99.90
18131;DHT22;9191;54.324;10.126;2022-09-20T01:04:06;9.00;99.90
18131;DHT22;9191;54.324;10.126;2022-09-20T01:06:33;9.00;99.90
18131;DHT22;9191;54.324;10.126;2022-09-20T01:09:01;9.00;99.90
18131;DHT22;9191;54.324;10.126;2022-09-20T01:11:29;9.00;99.90
18131;DHT22;9191;54.324;10.126;2022-09-20T01:13:57;8.90;99.90
18131;DHT22;9191;54.324;10.126;2022-09-20T01:16:24;9.00;99.90
18131;DHT22;9191;54.324;10.126;2022-09-20T01:18:51;8.90;99.90
18131;DHT22;9191;54.324;10.126;2022-09-20T01:21:18;8.90;99.90
18131;DHT22;9191;54.324;10.126;2022-09-20T01:23:47;9.00;99.90
18131;DHT22;9191;54.324;10.126;2022-09-20T01:26:26;8.90;99.90
18131;DHT22;9191;54.324;10.126;2022-09-20T01:28:57;8.90;99.90
18131;DHT22;9191;54.324;10.126;2022-09-20T01:31:27;8.90;99.90
18131;DHT22;9191;54.324;10.126;2022-09-20T01:33:57;8.90;99.90
18131;DHT22;9191;54.324;10.126;2022-09-20T01:36:25;8.80;99.90
18131;DHT22;9191;54.324;10.126;2022-09-20T01:38:58;8.80;99.90
18131;DHT22;9191;54.324;10.126;2022-09-20T01:41:27;8.80;99.90
18131;DHT22;9191;54.324;10.126;2022-09-20T01:44:00;8.80;99.90
18131;DHT22;9191;54.324;10.126;2022-09-20T01:46:30;8.80;99.90
18131;DHT22;9191;54.324;10.126;2022-09-20T01:49:01;8.80;99.90
18131;DHT22;9191;54.324;10.126;2022-09-20T01:54:29;8.80;99.90
18131;DHT22;9191;54.324;10.126;2022-09-20T02:00:05;8.80;99.90
18131;DHT22;9191;54.324;10.126;2022-09-20T02:05:23;8.80;99.90
18131;DHT22;9191;54.324;10.126;2022-09-20T02:10:52;8.70;99.90
18131;DHT22;9191;54.324;10.126;2022-09-20T02:13:27;8.60;99.90
18131;DHT22;9191;54.324;10.126;2022-09-20T02:16:04;8.60;99.90
18131;DHT22;9191;54.324;10.126;2022-09-20T02:18:37;8.60;99.90
18131;DHT22;9191;54.324;10.126;2022-09-20T02:21:12;8.60;99.90
18131;DHT22;9191;54.324;10.126;2022-09-20T02:23:43;8.60;99.90
18131;DHT22;9191;54.324;10.126;2022-09-20T02:26:18;8.50;99.90
18131;DHT22;9191;54.324;10.126;2022-09-20T02:28:51;8.50;99.90
18131;DHT22;9191;54.324;10.126;2022-09-20T02:31:37;8.50;99.90
18131;DHT22;9191;54.324;10.126;2022-09-20T02:34:11;8.50;99.90
18131;DHT22;9191;54.324;10.126;2022-09-20T02:36:45;8.50;99.90
18131;DHT22;9191;54.324;10.126;2022-09-20T02:39:16;8.50;99.90
18131;DHT22;9191;54.324;10.126;2022-09-20T02:41:58;8.40;99.90
18131;DHT22;9191;54.324;10.126;2022-09-20T02:47:18;8.40;99.90
18131;DHT22;9191;54.324;10.126;2022-09-20T02:49:51;8.40;99.90
18131;DHT22;9191;54.324;10.126;2022-09-20T02:52:25;8.30;99.90
18131;DHT22;9191;54.324;10.126;2022-09-20T02:54:56;8.30;99.90
18131;DHT22;9191;54.324;10.126;2022-09-20T02:57:25;8.30;99.90
18131;DHT22;9191;54.324;10.126;2022-09-20T02:59:55;8.30;99.90
18131;DHT22;9191;54.324;10.126;2022-09-20T03:02:25;8.30;99.90
18131;DHT22;9191;54.324;10.126;2022-09-20T03:04:57;8.30;99.90
18131;DHT22;9191;54.324;10.126;2022-09-20T03:07:29;8.30;99.90
18131;DHT22;9191;54.324;10.126;2022-09-20T03:10:04;8.30;99.90
18131;DHT22;9191;54.324;10.126;2022-09-20T03:12:34;8.30;99.90
18131;DHT22;9191;54.324;10.126;2022-09-20T03:15:06;8.30;99.90
18131;DHT22;9191;54.324;10.126;2022-09-20T03:17:40;8.30;99.90
18131;DHT22;9191;54.324;10.126;2022-09-20T03:20:13;8.40;99.90
18131;DHT22;9191;54.324;10.126;2022-09-20T03:22:47;8.30;99.90
18131;DHT22;9191;54.324;10.126;2022-09-20T03:25:27;8.30;99.90
18131;DHT22;9191;54.324;10.126;2022-09-20T03:27:58;8.30;99.90
18131;DHT22;9191;54.324;10.126;2022-09-20T03:30:29;8.30;99.90
18131;DHT22;9191;54.324;10.126;2022-09-20T03:33:03;8.30;99.90
18131;DHT22;9191;54.324;10.126;2022-09-20T03:35:36;8.20;99.90
18131;DHT22;9191;54.324;10.126;2022-09-20T03:38:10;8.30;99.90
18131;DHT22;9191;54.324;10.126;2022-09-20T03:40:49;8.20;99.90
18131;DHT22;9191;54.324;10.126;2022-09-20T03:43:21;8.20;99.90
18131;DHT22;9191;54.324;10.126;2022-09-20T03:45:53;8.20;99.90
18131;DHT22;9191;54.324;10.126;2022-09-20T03:48:28;8.20;99.90
18131;DHT22;9191;54.324;10.126;2022-09-20T03:51:03;8.20;99.90
18131;DHT22;9191;54.324;10.126;2022-09-20T03:59:23;8.20;99.90
18131;DHT22;9191;54.324;10.126;2022-09-20T04:04:39;8.20;99.90
18131;DHT22;9191;54.324;10.126;2022-09-20T04:07:12;8.30;99.90
18131;DHT22;9191;54.324;10.126;2022-09-20T04:09:55;8.20;99.90
18131;DHT22;9191;54.324;10.126;2022-09-20T04:12:26;8.20;99.90
18131;DHT22;9191;54.324;10.126;2022-09-20T04:14:56;8.30;99.90
18131;DHT22;9191;54.324;10.126;2022-09-20T04:17:30;8.30;99.90
18131;DHT22;9191;54.324;10.126;2022-09-20T04:20:04;8.30;99.90
18131;DHT22;9191;54.324;10.126;2022-09-20T04:22:32;8.20;99.90
18131;DHT22;9191;54.324;10.126;2022-09-20T04:25:00;8.20;99.90
18131;DHT22;9191;54.324;10.126;2022-09-20T04:27:28;8.20;99.90
18131;DHT22;9191;54.324;10.126;2022-09-20T04:29:58;8.20;99.90
18131;DHT22;9191;54.324;10.126;2022-09-20T04:32:27;8.10;99.90
18131;DHT22;9191;54.324;10.126;2022-09-20T04:34:58;8.10;99.90
18131;DHT22;9191;54.324;10.126;2022-09-20T04:37:43;8.10;99.90
18131;DHT22;9191;54.324;10.126;2022-09-20T04:40:14;8.10;99.90
18131;DHT22;9191;54.324;10.126;2022-09-20T04:48:21;8.20;99.90
18131;DHT22;9191;54.324;10.126;2022-09-20T04:51:03;8.30;99.90
18131;DHT22;9191;54.324;10.126;2022-09-20T04:53:55;8.30;99.90
18131;DHT22;9191;54.324;10.126;2022-09-20T04:56:30;8.30;99.90
18131;DHT22;9191;54.324;10.126;2022-09-20T04:59:06;8.30;99.90
18131;DHT22;9191;54.324;10.126;2022-09-20T05:04:31;8.30;99.90
18131;DHT22;9191;54.324;10.126;2022-09-20T05:07:25;8.30;99.90
18131;DHT22;9191;54.324;10.126;2022-09-20T05:10:06;8.30;99.90
18131;DHT22;9191;54.324;10.126;2022-09-20T05:12:43;8.30;99.90
18131;DHT22;9191;54.324;10.126;2022-09-20T05:15:32;8.30;99.90
18131;DHT22;9191;54.324;10.126;2022-09-20T05:18:06;8.30;99.90
18131;DHT22;9191;54.324;10.126;2022-09-20T05:20:42;8.30;99.90
18131;DHT22;9191;54.324;10.126;2022-09-20T05:23:14;8.30;99.90
18131;DHT22;9191;54.324;10.126;2022-09-20T05:25:51;8.20;99.90
18131;DHT22;9191;54.324;10.126;2022-09-20T05:28:22;8.20;99.90
18131;DHT22;9191;54.324;10.126;2022-09-20T05:30:51;8.10;99.90
18131;DHT22;9191;54.324;10.126;2022-09-20T05:33:21;8.20;99.90
18131;DHT22;9191;54.324;10.126;2022-09-20T05:35:52;8.20;99.90
18131;DHT22;9191;54.324;10.126;2022-09-20T05:38:23;8.20;99.90
18131;DHT22;9191;54.324;10.126;2022-09-20T05:41:05;8.20;99.90
18131;DHT22;9191;54.324;10.126;2022-09-20T05:43:33;8.30;99.90
18131;DHT22;9191;54.324;10.126;2022-09-20T05:46:02;8.30;99.90
18131;DHT22;9191;54.324;10.126;2022-09-20T05:48:37;8.40;99.90
18131;DHT22;9191;54.324;10.126;2022-09-20T05:51:07;8.40;99.90
18131;DHT22;9191;54.324;10.126;2022-09-20T05:53:45;8.40;99.90
18131;DHT22;9191;54.324;10.126;2022-09-20T05:56:19;8.50;99.90
18131;DHT22;9191;54.324;10.126;2022-09-20T05:58:53;8.50;99.90
18131;DHT22;9191;54.324;10.126;2022-09-20T06:01:23;8.50;99.90
18131;DHT22;9191;54.324;10.126;2022-09-20T06:03:51;8.60;99.90
18131;DHT22;9191;54.324;10.126;2022-09-20T06:06:21;8.60;99.90
18131;DHT22;9191;54.324;10.126;2022-09-20T06:08:55;8.80;99.90
18131;DHT22;9191;54.324;10.126;2022-09-20T06:11:33;8.90;99.90
18131;DHT22;9191;54.324;10.126;2022-09-20T06:14:07;8.90;99.90
18131;DHT22;9191;54.324;10.126;2022-09-20T06:16:38;9.10;99.90
18131;DHT22;9191;54.324;10.126;2022-09-20T06:19:10;9.20;99.90
18131;DHT22;9191;54.324;10.126;2022-09-20T06:21:41;9.20;99.90
18131;DHT22;9191;54.324;10.126;2022-09-20T06:24:15;9.30;99.90
18131;DHT22;9191;54.324;10.126;2022-09-20T06:26:46;9.40;99.90
18131;DHT22;9191;54.324;10.126;2022-09-20T06:29:24;9.50;99.90
18131;DHT22;9191;54.324;10.126;2022-09-20T06:31:52;9.50;99.90
18131;DHT22;9191;54.324;10.126;2022-09-20T06:34:19;9.60;99.90
18131;DHT22;9191;54.324;10.126;2022-09-20T06:36:46;9.60;99.90
18131;DHT22;9191;54.324;10.126;2022-09-20T06:39:34;9.70;99.90
18131;DHT22;9191;54.324;10.126;2022-09-20T06:42:23;9.80;99.90
18131;DHT22;9191;54.324;10.126;2022-09-20T06:44:50;9.80;99.90
18131;DHT22;9191;54.324;10.126;2022-09-20T06:47:17;9.80;99.90
18131;DHT22;9191;54.324;10.126;2022-09-20T06:49:44;9.90;99.90
18131;DHT22;9191;54.324;10.126;2022-09-20T06:52:11;9.90;99.90
18131;DHT22;9191;54.324;10.126;2022-09-20T06:54:38;9.90;99.90
18131;DHT22;9191;54.324;10.126;2022-09-20T06:57:10;10.00;99.90
18131;DHT22;9191;54.324;10.126;2022-09-20T06:59:39;10.20;99.90
18131;DHT22;9191;54.324;10.126;2022-09-20T07:02:06;10.30;99.90
18131;DHT22;9191;54.324;10.126;2022-09-20T07:04:33;10.40;99.90
18131;DHT22;9191;54.324;10.126;2022-09-20T07:07:00;10.70;99.90
18131;DHT22;9191;54.324;10.126;2022-09-20T07:09:27;11.10;99.90
18131;DHT22;9191;54.324;10.126;2022-09-20T07:11:53;11.60;99.90
18131;DHT22;9191;54.324;10.126;2022-09-20T07:14:23;11.80;99.90
18131;DHT22;9191;54.324;10.126;2022-09-20T07:16:52;12.20;99.90
18131;DHT22;9191;54.324;10.126;2022-09-20T07:19:18;12.90;99.90
18131;DHT22;9191;54.324;10.126;2022-09-20T07:21:47;13.90;99.90
18131;DHT22;9191;54.324;10.126;2022-09-20T07:24:13;15.20;99.90
18131;DHT22;9191;54.324;10.126;2022-09-20T07:26:48;16.00;99.90
18131;DHT22;9191;54.324;10.126;2022-09-20T07:29:19;16.80;99.90
18131;DHT22;9191;54.324;10.126;2022-09-20T07:31:47;17.50;99.90
18131;DHT22;9191;54.324;10.126;2022-09-20T07:34:16;18.10;99.90
18131;DHT22;9191;54.324;10.126;2022-09-20T07:36:44;18.40;99.90
18131;DHT22;9191;54.324;10.126;2022-09-20T07:39:11;18.40;99.90
18131;DHT22;9191;54.324;10.126;2022-09-20T07:41:38;18.70;99.90
18131;DHT22;9191;54.324;10.126;2022-09-20T07:44:04;19.30;99.90
18131;DHT22;9191;54.324;10.126;2022-09-20T07:46:58;19.40;99.90
18131;DHT22;9191;54.324;10.126;2022-09-20T07:49:26;19.60;99.90
18131;DHT22;9191;54.324;10.126;2022-09-20T07:51:54;19.30;99.90
18131;DHT22;9191;54.324;10.126;2022-09-20T07:54:21;19.50;99.90
18131;DHT22;9191;54.324;10.126;2022-09-20T07:56:47;19.70;99.90
18131;DHT22;9191;54.324;10.126;2022-09-20T07:59:14;19.90;99.90
18131;DHT22;9191;54.324;10.126;2022-09-20T08:01:41;20.30;99.90
18131;DHT22;9191;54.324;10.126;2022-09-20T08:04:09;19.90;99.90
18131;DHT22;9191;54.324;10.126;2022-09-20T08:06:36;20.70;99.90
18131;DHT22;9191;54.324;10.126;2022-09-20T08:09:03;21.20;99.90
18131;DHT22;9191;54.324;10.126;2022-09-20T08:11:30;21.00;99.90
18131;DHT22;9191;54.324;10.126;2022-09-20T08:13:57;21.50;99.90
18131;DHT22;9191;54.324;10.126;2022-09-20T08:16:25;21.70;99.90
18131;DHT22;9191;54.324;10.126;2022-09-20T08:18:52;22.00;99.90
18131;DHT22;9191;54.324;10.126;2022-09-20T08:21:22;22.60;99.90
18131;DHT22;9191;54.324;10.126;2022-09-20T08:23:49;22.40;99.90
18131;DHT22;9191;54.324;10.126;2022-09-20T08:26:16;23.20;99.90
18131;DHT22;9191;54.324;10.126;2022-09-20T08:28:44;23.00;99.90
18131;DHT22;9191;54.324;10.126;2022-09-20T08:31:11;23.70;99.90
18131;DHT22;9191;54.324;10.126;2022-09-20T08:33:38;23.60;99.90
18131;DHT22;9191;54.324;10.126;2022-09-20T08:36:06;23.60;99.90
18131;DHT22;9191;54.324;10.126;2022-09-20T08:38:35;23.40;99.90
18131;DHT22;9191;54.324;10.126;2022-09-20T08:41:02;22.70;99.90
18131;DHT22;9191;54.324;10.126;2022-09-20T08:43:31;23.00;99.90
18131;DHT22;9191;54.324;10.126;2022-09-20T08:46:01;23.30;99.90
18131;DHT22;9191;54.324;10.126;2022-09-20T08:48:29;22.90;99.90
18131;DHT22;9191;54.324;10.126;2022-09-20T08:50:58;23.00;99.90
18131;DHT22;9191;54.324;10.126;2022-09-20T08:53:24;23.40;99.90
18131;DHT22;9191;54.324;10.126;2022-09-20T08:55:54;23.10;99.90
18131;DHT22;9191;54.324;10.126;2022-09-20T08:58:23;24.00;99.90
18131;DHT22;9191;54.324;10.126;2022-09-20T09:01:00;23.90;99.90
18131;DHT22;9191;54.324;10.126;2022-09-20T09:03:27;23.60;99.90
18131;DHT22;9191;54.324;10.126;2022-09-20T09:05:55;24.00;99.90
18131;DHT22;9191;54.324;10.126;2022-09-20T09:08:23;24.00;99.90
18131;DHT22;9191;54.324;10.126;2022-09-20T09:10:50;24.30;99.90
18131;DHT22;9191;54.324;10.126;2022-09-20T09:13:22;24.40;99.90
18131;DHT22;9191;54.324;10.126;2022-09-20T09:15:52;24.50;99.90
18131;DHT22;9191;54.324;10.126;2022-09-20T09:18:19;23.00;99.90
18131;DHT22;9191;54.324;10.126;2022-09-20T09:20:46;23.70;99.90
18131;DHT22;9191;54.324;10.126;2022-09-20T09:23:20;23.90;99.90
18131;DHT22;9191;54.324;10.126;2022-09-20T09:25:49;25.10;99.90
18131;DHT22;9191;54.324;10.126;2022-09-20T09:28:16;25.80;99.90
18131;DHT22;9191;54.324;10.126;2022-09-20T09:30:47;26.10;99.90
18131;DHT22;9191;54.324;10.126;2022-09-20T09:33:15;26.20;99.90
18131;DHT22;9191;54.324;10.126;2022-09-20T09:35:42;26.10;99.90
18131;DHT22;9191;54.324;10.126;2022-09-20T09:38:15;25.60;99.90
18131;DHT22;9191;54.324;10.126;2022-09-20T09:40:48;25.50;99.90
18131;DHT22;9191;54.324;10.126;2022-09-20T09:43:18;25.00;99.90
18131;DHT22;9191;54.324;10.126;2022-09-20T09:45:47;24.90;99.90
18131;DHT22;9191;54.324;10.126;2022-09-20T09:48:16;25.50;99.90
18131;DHT22;9191;54.324;10.126;2022-09-20T09:50:43;25.70;99.90
18131;DHT22;9191;54.324;10.126;2022-09-20T09:53:10;26.40;99.90
18131;DHT22;9191;54.324;10.126;2022-09-20T09:58:33;25.10;99.90
18131;DHT22;9191;54.324;10.126;2022-09-20T10:01:09;25.30;99.90
18131;DHT22;9191;54.324;10.126;2022-09-20T10:03:40;24.90;99.90
18131;DHT22;9191;54.324;10.126;2022-09-20T10:06:13;25.80;99.90
18131;DHT22;9191;54.324;10.126;2022-09-20T10:08:45;25.90;99.90
18131;DHT22;9191;54.324;10.126;2022-09-20T10:11:19;26.60;99.90
18131;DHT22;9191;54.324;10.126;2022-09-20T10:13:53;26.40;99.90
18131;DHT22;9191;54.324;10.126;2022-09-20T10:16:30;26.40;99.90
18131;DHT22;9191;54.324;10.126;2022-09-20T10:19:00;26.70;99.90
18131;DHT22;9191;54.324;10.126;2022-09-20T10:21:32;25.10;99.90
18131;DHT22;9191;54.324;10.126;2022-09-20T10:24:12;24.50;99.90
18131;DHT22;9191;54.324;10.126;2022-09-20T10:26:45;23.80;99.90
18131;DHT22;9191;54.324;10.126;2022-09-20T10:29:19;22.70;99.90
18131;DHT22;9191;54.324;10.126;2022-09-20T10:31:53;23.60;99.90
18131;DHT22;9191;54.324;10.126;2022-09-20T10:34:27;24.40;99.90
18131;DHT22;9191;54.324;10.126;2022-09-20T10:37:02;25.70;99.90
18131;DHT22;9191;54.324;10.126;2022-09-20T10:39:33;24.50;99.90
18131;DHT22;9191;54.324;10.126;2022-09-20T10:42:03;23.90;99.90
18131;DHT22;9191;54.324;10.126;2022-09-20T10:45:02;24.60;99.90
18131;DHT22;9191;54.324;10.126;2022-09-20T10:47:32;24.00;99.90
18131;DHT22;9191;54.324;10.126;2022-09-20T10:50:01;24.20;99.90
18131;DHT22;9191;54.324;10.126;2022-09-20T10:52:36;24.80;99.90
18131;DHT22;9191;54.324;10.126;2022-09-20T10:55:13;24.40;99.90
18131;DHT22;9191;54.324;10.126;2022-09-20T11:00:30;25.20;99.90
18131;DHT22;9191;54.324;10.126;2022-09-20T11:03:03;24.10;99.90
18131;DHT22;9191;54.324;10.126;2022-09-20T11:05:36;24.10;99.90
18131;DHT22;9191;54.324;10.126;2022-09-20T11:08:07;23.60;99.90
18131;DHT22;9191;54.324;10.126;2022-09-20T11:10:37;23.70;99.90
18131;DHT22;9191;54.324;10.126;2022-09-20T11:13:10;24.20;99.90
18131;DHT22;9191;54.324;10.126;2022-09-20T11:15:42;23.80;99.90
18131;DHT22;9191;54.324;10.126;2022-09-20T11:18:11;24.70;99.90
18131;DHT22;9191;54.324;10.126;2022-09-20T11:20:41;24.00;99.90
18131;DHT22;9191;54.324;10.126;2022-09-20T11:23:11;24.90;99.90
18131;DHT22;9191;54.324;10.126;2022-09-20T11:25:40;23.50;99.90
18131;DHT22;9191;54.324;10.126;2022-09-20T11:28:10;22.50;99.90
18131;DHT22;9191;54.324;10.126;2022-09-20T11:30:39;23.40;99.90
18131;DHT22;9191;54.324;10.126;2022-09-20T11:33:11;24.10;99.90
18131;DHT22;9191;54.324;10.126;2022-09-20T11:35:41;24.20;99.90
18131;DHT22;9191;54.324;10.126;2022-09-20T11:38:10;24.50;99.90
18131;DHT22;9191;54.324;10.126;2022-09-20T11:40:40;23.20;99.90
18131;DHT22;9191;54.324;10.126;2022-09-20T11:43:08;23.10;99.90
18131;DHT22;9191;54.324;10.126;2022-09-20T11:45:36;23.00;99.90
18131;DHT22;9191;54.324;10.126;2022-09-20T11:48:05;22.20;99.90
18131;DHT22;9191;54.324;10.126;2022-09-20T11:50:43;23.20;99.90
18131;DHT22;9191;54.324;10.126;2022-09-20T11:53:15;22.30;99.90
18131;DHT22;9191;54.324;10.126;2022-09-20T11:55:49;21.60;99.90
18131;DHT22;9191;54.324;10.126;2022-09-20T11:58:18;21.50;99.90
18131;DHT22;9191;54.324;10.126;2022-09-20T12:00:47;20.70;99.90
18131;DHT22;9191;54.324;10.126;2022-09-20T12:03:24;20.50;99.90
18131;DHT22;9191;54.324;10.126;2022-09-20T12:05:58;19.80;99.90
18131;DHT22;9191;54.324;10.126;2022-09-20T12:08:26;19.90;99.90
18131;DHT22;9191;54.324;10.126;2022-09-20T12:10:55;20.00;99.90
18131;DHT22;9191;54.324;10.126;2022-09-20T12:13:23;19.10;99.90
18131;DHT22;9191;54.324;10.126;2022-09-20T12:15:55;19.20;99.90
18131;DHT22;9191;54.324;10.126;2022-09-20T12:18:32;18.80;99.90
18131;DHT22;9191;54.324;10.126;2022-09-20T12:21:04;18.10;99.90
18131;DHT22;9191;54.324;10.126;2022-09-20T12:28:58;17.50;99.90
18131;DHT22;9191;54.324;10.126;2022-09-20T12:31:37;17.30;99.90
18131;DHT22;9191;54.324;10.126;2022-09-20T12:34:27;17.20;99.90
18131;DHT22;9191;54.324;10.126;2022-09-20T12:37:19;17.30;99.90
18131;DHT22;9191;54.324;10.126;2022-09-20T12:39:49;16.80;99.90
18131;DHT22;9191;54.324;10.126;2022-09-20T12:42:22;16.50;99.90
18131;DHT22;9191;54.324;10.126;2022-09-20T12:44:56;16.50;99.90
18131;DHT22;9191;54.324;10.126;2022-09-20T12:47:23;16.70;99.90
18131;DHT22;9191;54.324;10.126;2022-09-20T12:49:50;16.70;99.90
18131;DHT22;9191;54.324;10.126;2022-09-20T12:52:38;16.90;99.90
18131;DHT22;9191;54.324;10.126;2022-09-20T12:55:28;17.00;99.90
18131;DHT22;9191;54.324;10.126;2022-09-20T12:57:57;16.90;99.90
18131;DHT22;9191;54.324;10.126;2022-09-20T13:00:27;16.90;99.90
18131;DHT22;9191;54.324;10.126;2022-09-20T13:02:56;16.70;99.90
18131;DHT22;9191;54.324;10.126;2022-09-20T13:05:30;16.50;99.90
18131;DHT22;9191;54.324;10.126;2022-09-20T13:07:59;16.60;99.90
18131;DHT22;9191;54.324;10.126;2022-09-20T13:10:28;16.70;99.90
18131;DHT22;9191;54.324;10.126;2022-09-20T13:13:00;17.00;99.90
18131;DHT22;9191;54.324;10.126;2022-09-20T13:15:28;17.10;99.90
18131;DHT22;9191;54.324;10.126;2022-09-20T13:17:58;16.90;99.90
18131;DHT22;9191;54.324;10.126;2022-09-20T13:20:26;16.70;99.90
18131;DHT22;9191;54.324;10.126;2022-09-20T13:22:55;16.70;99.90
18131;DHT22;9191;54.324;10.126;2022-09-20T13:25:23;16.80;99.90
18131;DHT22;9191;54.324;10.126;2022-09-20T13:27:53;16.90;99.90
18131;DHT22;9191;54.324;10.126;2022-09-20T13:30:23;17.20;99.90
18131;DHT22;9191;54.324;10.126;2022-09-20T13:32:51;17.60;99.90
18131;DHT22;9191;54.324;10.126;2022-09-20T13:35:18;17.80;99.90
18131;DHT22;9191;54.324;10.126;2022-09-20T13:37:47;17.60;99.90
18131;DHT22;9191;54.324;10.126;2022-09-20T13:40:16;17.90;99.90
18131;DHT22;9191;54.324;10.126;2022-09-20T13:42:44;17.80;99.90
18131;DHT22;9191;54.324;10.126;2022-09-20T13:45:11;17.70;99.90
18131;DHT22;9191;54.324;10.126;2022-09-20T13:47:39;17.50;99.90
18131;DHT22;9191;54.324;10.126;2022-09-20T13:50:11;17.50;99.90
18131;DHT22;9191;54.324;10.126;2022-09-20T13:52:43;17.80;99.90
18131;DHT22;9191;54.324;10.126;2022-09-20T13:55:20;17.50;99.90
18131;DHT22;9191;54.324;10.126;2022-09-20T13:57:48;17.30;99.90
18131;DHT22;9191;54.324;10.126;2022-09-20T14:00:15;17.30;99.90
18131;DHT22;9191;54.324;10.126;2022-09-20T14:02:42;17.40;99.90
18131;DHT22;9191;54.324;10.126;2022-09-20T14:05:12;17.20;99.90
18131;DHT22;9191;54.324;10.126;2022-09-20T14:07:41;16.90;99.90
18131;DHT22;9191;54.324;10.126;2022-09-20T14:12:52;16.30;99.90
18131;DHT22;9191;54.324;10.126;2022-09-20T14:15:19;16.20;99.90
18131;DHT22;9191;54.324;10.126;2022-09-20T14:17:46;16.30;99.90
18131;DHT22;9191;54.324;10.126;2022-09-20T14:20:16;16.50;99.90
18131;DHT22;9191;54.324;10.126;2022-09-20T14:22:43;16.70;99.90
18131;DHT22;9191;54.324;10.126;2022-09-20T14:25:20;16.90;99.90
18131;DHT22;9191;54.324;10.126;2022-09-20T14:28:04;16.90;99.90
18131;DHT22;9191;54.324;10.126;2022-09-20T14:30:32;16.80;99.90
18131;DHT22;9191;54.324;10.126;2022-09-20T14:33:00;16.80;99.90
18131;DHT22;9191;54.324;10.126;2022-09-20T14:35:27;16.70;99.90
18131;DHT22;9191;54.324;10.126;2022-09-20T14:37:55;16.70;99.90
18131;DHT22;9191;54.324;10.126;2022-09-20T14:40:25;16.80;99.90
18131;DHT22;9191;54.324;10.126;2022-09-20T14:42:53;16.80;99.90
18131;DHT22;9191;54.324;10.126;2022-09-20T14:48:32;16.80;99.90
18131;DHT22;9191;54.324;10.126;2022-09-20T14:51:19;16.80;99.90
18131;DHT22;9191;54.324;10.126;2022-09-20T14:53:48;16.90;99.90
18131;DHT22;9191;54.324;10.126;2022-09-20T14:56:15;16.80;99.90
18131;DHT22;9191;54.324;10.126;2022-09-20T15:01:39;16.70;99.90
18131;DHT22;9191;54.324;10.126;2022-09-20T15:04:16;16.30;99.90
18131;DHT22;9191;54.324;10.126;2022-09-20T15:06:44;16.30;99.90
18131;DHT22;9191;54.324;10.126;2022-09-20T15:09:11;16.30;99.90
18131;DHT22;9191;54.324;10.126;2022-09-20T15:11:38;16.40;99.90
18131;DHT22;9191;54.324;10.126;2022-09-20T15:14:05;16.30;99.90
18131;DHT22;9191;54.324;10.126;2022-09-20T15:16:32;16.30;99.90
18131;DHT22;9191;54.324;10.126;2022-09-20T15:18:59;16.40;99.90
18131;DHT22;9191;54.324;10.126;2022-09-20T15:21:27;16.40;99.90
18131;DHT22;9191;54.324;10.126;2022-09-20T15:23:54;16.40;99.90
18131;DHT22;9191;54.324;10.126;2022-09-20T15:26:21;16.30;99.90
18131;DHT22;9191;54.324;10.126;2022-09-20T15:28:48;16.30;99.90
18131;DHT22;9191;54.324;10.126;2022-09-20T15:31:14;16.20;99.90
18131;DHT22;9191;54.324;10.126;2022-09-20T15:33:43;16.20;99.90
18131;DHT22;9191;54.324;10.126;2022-09-20T15:36:09;16.20;99.90
18131;DHT22;9191;54.324;10.126;2022-09-20T15:38:38;16.20;99.90
18131;DHT22;9191;54.324;10.126;2022-09-20T15:41:05;16.20;99.90
18131;DHT22;9191;54.324;10.126;2022-09-20T15:43:32;16.20;99.90
18131;DHT22;9191;54.324;10.126;2022-09-20T15:45:59;16.20;99.90
18131;DHT22;9191;54.324;10.126;2022-09-20T15:48:27;16.20;99.90
18131;DHT22;9191;54.324;10.126;2022-09-20T15:50:57;16.10;99.90
18131;DHT22;9191;54.324;10.126;2022-09-20T15:53:26;16.10;99.90
18131;DHT22;9191;54.324;10.126;2022-09-20T15:55:54;16.00;99.90
18131;DHT22;9191;54.324;10.126;2022-09-20T15:58:20;15.90;99.90
18131;DHT22;9191;54.324;10.126;2022-09-20T16:00:50;15.90;99.90
18131;DHT22;9191;54.324;10.126;2022-09-20T16:03:16;15.90;99.90
18131;DHT22;9191;54.324;10.126;2022-09-20T16:05:43;15.90;99.90
18131;DHT22;9191;54.324;10.126;2022-09-20T16:08:10;15.90;99.90
18131;DHT22;9191;54.324;10.126;2022-09-20T16:10:36;16.00;99.90
18131;DHT22;9191;54.324;10.126;2022-09-20T16:13:04;16.10;99.90
18131;DHT22;9191;54.324;10.126;2022-09-20T16:15:31;16.30;99.90
18131;DHT22;9191;54.324;10.126;2022-09-20T16:17:57;16.20;99.90
18131;DHT22;9191;54.324;10.126;2022-09-20T16:20:41;16.10;99.90
18131;DHT22;9191;54.324;10.126;2022-09-20T16:23:08;15.90;99.90
18131;DHT22;9191;54.324;10.126;2022-09-20T16:25:35;15.90;99.90
18131;DHT22;9191;54.324;10.126;2022-09-20T16:28:01;15.90;99.90
18131;DHT22;9191;54.324;10.126;2022-09-20T16:30:29;15.90;99.90
18131;DHT22;9191;54.324;10.126;2022-09-20T16:32:56;15.80;99.90
18131;DHT22;9191;54.324;10.126;2022-09-20T16:35:29;15.70;99.90
18131;DHT22;9191;54.324;10.126;2022-09-20T16:37:58;15.60;99.90
18131;DHT22;9191;54.324;10.126;2022-09-20T16:40:25;15.50;99.90
18131;DHT22;9191;54.324;10.126;2022-09-20T16:42:52;15.40;99.90
18131;DHT22;9191;54.324;10.126;2022-09-20T16:45:22;15.40;99.90
18131;DHT22;9191;54.324;10.126;2022-09-20T16:47:53;15.40;99.90
18131;DHT22;9191;54.324;10.126;2022-09-20T16:50:22;15.30;99.90
18131;DHT22;9191;54.324;10.126;2022-09-20T16:52:49;15.20;99.90
18131;DHT22;9191;54.324;10.126;2022-09-20T16:55:15;15.20;99.90